Aérodrome :
LOGIN :

S'inscrire | Disclaimer

   EN    FR    IT 

 










Légende :    VFR   VFR Marginal   IFR   IFR Intensif   IFR Très Intensif
Visi : 
Plafond : 
>= 8 km
>= 3000ft
5 à 8 km
1000 à 3000 ft
1500m à 5 km
500 à 1000 ft
800 à 1500m
200 à 500 ft
< 800m
< 200 ft
Symboles :   Orages  Brouillard  Fortes neiges  Fortes précipitations  Vent > 20 kt
SIGMETs :   Divers  Orages  Givrage  Turbulence  Onde Orograph.  Cendres Volcan.







- Altitude de l'aérodrome : 1682 ft
- Code IATA : VIT


LEVT - Vitoria Gasteiz

DERNIER METAR :
  • 011730Z 22011KT 9999 BKN040 13/06 Q1017

METARs EXPIRÉS :
  • 011700Z 21012KT 170V250 9999 BKN042 14/06 Q1017
  • 011630Z 22012KT 9999 BKN040 13/05 Q1017
  • 011600Z 22012KT 190V250 9999 BKN035 13/06 Q1017
  • 011530Z 23014KT 190V250 9999 BKN035 13/05 Q1017
  • 011500Z 22012KT 190V260 9999 BKN034 13/05 Q1017

TAF TAF LEVT
Valide du 01 à 18h jusqu'au 02 à 18h UTC


011700Z 0118/0218 22009KT 9999 SCT040 TX18/0216Z TN01/0206Z
Pas de NOTAMs connus pour ce terrain.



MET'MAP, la Météo Aéronautique d'un coup d'oeil ! - Copyright ORBIFLY Décembre 2007 - Disclaimer

ORBIFLY MET'MAP TEAM :

Programmation & Développement : Alexandra Zaïnal
Conception & Développement : Baudouin d'Aumeries
Co-Programmation & Développement : Marc-Olivier Méhu
Soutien technique & logistique : Manuel Goepfert

Contact : metmap@orbifly.com




SOURCES & CREDITS :

   NOAA